createdAt,value
2022-11-15T00:02:36.107Z,101366.16
2022-11-15T00:05:23.002Z,101377.22
2022-11-15T00:08:09.017Z,101378.31
2022-11-15T00:11:01.420Z,101383.03
2022-11-15T00:13:47.051Z,101379.81
2022-11-15T00:16:32.947Z,101382.78
2022-11-15T00:19:18.984Z,101373.75
2022-11-15T00:22:05.125Z,101363.06
2022-11-15T00:24:51.110Z,101363.41
2022-11-15T00:27:36.784Z,101366.63
2022-11-15T00:30:22.824Z,101377.72
2022-11-15T00:33:10.483Z,101360.88
2022-11-15T00:36:02.289Z,101368.44
2022-11-15T00:38:48.271Z,101365.78
2022-11-15T00:41:34.388Z,101360.50
2022-11-15T00:44:20.233Z,101355.94
2022-11-15T00:47:06.388Z,101365.53
2022-11-15T00:49:52.495Z,101360.28
2022-11-15T00:52:38.194Z,101354.63
2022-11-15T00:55:24.745Z,101371.53
2022-11-15T00:58:11.139Z,101362.59
2022-11-15T01:00:57.351Z,101377.22
2022-11-15T01:03:43.593Z,101363.88
2022-11-15T01:06:29.249Z,101371.69
2022-11-15T01:09:15.390Z,101379.28
2022-11-15T01:12:00.873Z,101379.06
2022-11-15T01:14:46.736Z,101374.91
2022-11-15T01:17:33.012Z,101381.81
2022-11-15T01:20:18.622Z,101372.88
2022-11-15T01:23:04.527Z,101366.44
2022-11-15T01:25:51.158Z,101390.63
2022-11-15T01:28:39.332Z,101393.22
2022-11-15T01:31:25.511Z,101394.06
2022-11-15T01:34:11.419Z,101390.78
2022-11-15T01:36:57.749Z,101381.00
2022-11-15T01:39:43.734Z,101389.88
2022-11-15T01:42:30.753Z,101376.06
2022-11-15T01:45:17.287Z,101398.50
2022-11-15T01:48:03.637Z,101392.72
2022-11-15T01:50:50.475Z,101398.69
2022-11-15T01:53:40.171Z,101398.53
2022-11-15T01:56:30.804Z,101395.41
2022-11-15T01:59:17.118Z,101411.94
2022-11-15T02:02:03.355Z,101409.22
2022-11-15T02:04:49.925Z,101400.84
2022-11-15T02:07:37.684Z,101419.03
2022-11-15T02:10:25.327Z,101428.66
2022-11-15T02:13:11.538Z,101418.53
2022-11-15T02:16:03.344Z,101426.31
2022-11-15T02:19:28.262Z,101428.16
2022-11-15T02:22:55.730Z,101433.25
2022-11-15T02:26:23.855Z,101431.59
2022-11-15T02:29:39.191Z,101439.59
2022-11-15T02:32:51.872Z,101430.06
2022-11-15T02:36:10.045Z,101417.97
2022-11-15T02:39:04.227Z,101437.03
2022-11-15T02:41:56.673Z,101430.75
2022-11-15T02:44:47.238Z,101431.31
2022-11-15T02:47:39.204Z,101432.25
2022-11-15T02:50:29.605Z,101436.31
2022-11-15T02:53:16.850Z,101430.63
2022-11-15T02:56:02.817Z,101442.69
2022-11-15T02:59:03.225Z,101441.84
2022-11-15T03:02:24.492Z,101445.84
2022-11-15T03:05:13.480Z,101435.53
2022-11-15T03:08:05.450Z,101430.75
2022-11-15T03:11:17.754Z,101455.09
2022-11-15T03:14:24.872Z,101455.31
2022-11-15T03:17:36.843Z,101439.03
2022-11-15T03:20:22.820Z,101434.66
2022-11-15T03:23:11.545Z,101439.72
2022-11-15T03:25:59.791Z,101447.50
2022-11-15T03:28:50.855Z,101452.16
2022-11-15T03:31:51.194Z,101442.63
2022-11-15T03:35:02.185Z,101448.91
2022-11-15T03:37:58.688Z,101459.75
2022-11-15T03:40:54.343Z,101449.66
2022-11-15T03:44:15.728Z,101452.25
2022-11-15T03:47:35.633Z,101464.25
2022-11-15T03:50:24.302Z,101457.53
2022-11-15T03:53:10.618Z,101457.25
2022-11-15T03:55:56.577Z,101445.84
2022-11-15T03:58:42.606Z,101443.56
2022-11-15T04:01:28.988Z,101444.63
2022-11-15T04:04:15.055Z,101454.06
2022-11-15T04:07:01.111Z,101443.25
2022-11-15T04:10:05.257Z,101448.78
2022-11-15T04:12:51.729Z,101453.03
2022-11-15T04:15:37.848Z,101463.81
2022-11-15T04:18:24.250Z,101452.88
2022-11-15T04:21:29.081Z,101462.00
2022-11-15T04:24:14.771Z,101469.59
2022-11-15T04:27:01.471Z,101462.00
2022-11-15T04:29:47.732Z,101457.13
2022-11-15T04:32:34.917Z,101466.88
2022-11-15T04:35:20.449Z,101483.22
2022-11-15T04:38:08.772Z,101482.09
2022-11-15T04:40:55.264Z,101481.69
2022-11-15T04:43:41.696Z,101496.06
2022-11-15T04:46:28.423Z,101491.75
2022-11-15T04:49:14.381Z,101491.28
2022-11-15T04:52:00.855Z,101497.88
2022-11-15T04:54:47.111Z,101491.53
2022-11-15T04:57:33.069Z,101487.78
2022-11-15T05:00:19.997Z,101500.53
2022-11-15T05:03:26.816Z,101501.16
2022-11-15T05:06:12.670Z,101508.19
2022-11-15T05:08:58.553Z,101512.22
2022-11-15T05:11:44.280Z,101507.41
2022-11-15T05:14:31.370Z,101516.09
2022-11-15T05:17:16.964Z,101514.22
2022-11-15T05:20:02.977Z,101516.75
2022-11-15T05:22:48.824Z,101521.81
2022-11-15T05:25:35.197Z,101533.66
2022-11-15T05:28:21.587Z,101524.78
2022-11-15T05:31:17.583Z,101536.81
2022-11-15T05:34:05.558Z,101537.63
2022-11-15T05:36:52.853Z,101517.00
2022-11-15T05:39:38.514Z,101531.31
2022-11-15T05:42:28.468Z,101534.50
2022-11-15T05:45:15.710Z,101516.94
2022-11-15T05:48:05.501Z,101546.72
2022-11-15T05:50:52.314Z,101551.78
2022-11-15T05:53:39.013Z,101536.16
2022-11-15T05:56:26.990Z,101548.81
2022-11-15T05:59:12.913Z,101556.63
2022-11-15T06:01:59.407Z,101547.06
2022-11-15T06:04:45.522Z,101549.78
2022-11-15T06:07:32.250Z,101546.53
2022-11-15T06:10:18.707Z,101551.94
2022-11-15T06:13:06.679Z,101551.41
2022-11-15T06:15:52.311Z,101542.47
2022-11-15T06:18:38.844Z,101548.81
2022-11-15T06:21:25.387Z,101549.22
2022-11-15T06:24:12.030Z,101556.56
2022-11-15T06:26:58.825Z,101551.66
2022-11-15T06:29:45.984Z,101546.88
2022-11-15T06:32:32.313Z,101552.13
2022-11-15T06:35:19.168Z,101551.72
2022-11-15T06:38:10.857Z,101552.34
2022-11-15T06:41:02.131Z,101539.19
2022-11-15T06:43:48.667Z,101547.94
2022-11-15T06:46:36.792Z,101542.66
2022-11-15T06:49:22.772Z,101545.06
2022-11-15T06:52:09.894Z,101541.81
2022-11-15T06:54:55.863Z,101543.50
2022-11-15T06:57:52.038Z,101531.84
2022-11-15T07:00:40.403Z,101537.69
2022-11-15T07:03:28.019Z,101519.69
2022-11-15T07:06:14.864Z,101532.72
2022-11-15T07:09:04.268Z,101533.47
2022-11-15T07:11:50.310Z,101550.13
2022-11-15T07:14:36.291Z,101532.34
2022-11-15T07:17:23.068Z,101534.63
2022-11-15T07:20:09.916Z,101537.25
2022-11-15T07:23:06.007Z,101536.16
2022-11-15T07:25:52.463Z,101538.47
2022-11-15T07:28:38.903Z,101536.31
2022-11-15T07:31:26.785Z,101537.41
2022-11-15T07:34:13.582Z,101537.47
2022-11-15T07:36:59.579Z,101522.44
2022-11-15T07:39:44.977Z,101541.66
2022-11-15T07:42:52.030Z,101532.94
2022-11-15T07:45:46.516Z,101525.34
2022-11-15T07:48:43.353Z,101544.44
2022-11-15T07:51:30.364Z,101545.69
2022-11-15T07:54:15.950Z,101553.69
2022-11-15T07:57:06.860Z,101535.50
2022-11-15T07:59:53.824Z,101552.53
2022-11-15T08:02:39.388Z,101543.91
2022-11-15T08:05:25.151Z,101552.00
2022-11-15T08:08:12.493Z,101531.53
2022-11-15T08:11:02.072Z,101538.06
2022-11-15T08:13:49.084Z,101532.53
2022-11-15T08:16:34.846Z,101530.53
2022-11-15T08:19:20.314Z,101511.94
2022-11-15T08:22:06.739Z,101497.28
2022-11-15T08:24:52.521Z,101525.19
2022-11-15T08:27:38.751Z,101522.91
2022-11-15T08:30:25.656Z,101523.88
2022-11-15T08:33:13.760Z,101514.88
2022-11-15T08:36:02.453Z,101506.56
2022-11-15T08:38:50.948Z,101505.72
2022-11-15T08:41:38.884Z,101503.44
2022-11-15T08:44:25.638Z,101479.03
2022-11-15T08:47:15.479Z,101492.25
2022-11-15T08:50:01.925Z,101475.66
2022-11-15T08:52:51.353Z,101478.19
2022-11-15T08:55:39.102Z,101479.59
2022-11-15T08:58:25.094Z,101472.84
2022-11-15T09:01:21.491Z,101461.38
2022-11-15T09:04:07.726Z,101461.50
2022-11-15T09:06:53.750Z,101471.13
2022-11-15T09:09:40.720Z,101463.47
2022-11-15T09:12:26.979Z,101476.72
2022-11-15T09:15:13.824Z,101464.47
2022-11-15T09:18:00.527Z,101469.41
2022-11-15T09:20:46.296Z,101444.88
2022-11-15T09:23:32.259Z,101442.47
2022-11-15T09:26:19.907Z,101461.44
2022-11-15T09:29:06.025Z,101443.25
2022-11-15T09:31:56.560Z,101435.28
2022-11-15T09:34:42.122Z,101450.19
2022-11-15T09:37:28.367Z,101441.31
2022-11-15T09:40:18.081Z,101451.28
2022-11-15T09:43:16.555Z,101446.56
2022-11-15T09:46:20.347Z,101445.38
2022-11-15T09:49:16.658Z,101434.50
2022-11-15T09:52:23.198Z,101437.97
2022-11-15T09:54:54.500Z,101442.25
2022-11-15T09:57:41.162Z,101437.97
2022-11-15T10:03:15.445Z,101438.97
2022-11-15T10:05:47.110Z,101430.31
2022-11-15T10:08:33.421Z,101444.50
2022-11-15T10:14:22.760Z,101436.38
2022-11-15T10:17:15.670Z,101442.59
2022-11-15T10:20:10.068Z,101444.47
2022-11-15T10:22:40.309Z,101444.38
2022-11-15T10:25:10.968Z,101438.22
2022-11-15T10:27:39.789Z,101415.88
2022-11-15T10:30:17.056Z,101403.09
2022-11-15T10:32:46.521Z,101413.34
2022-11-15T10:35:30.837Z,101419.66
2022-11-15T10:38:10.896Z,101407.44
2022-11-15T10:40:40.156Z,101402.25
2022-11-15T10:43:10.415Z,101423.31
2022-11-15T10:45:39.622Z,101421.91
2022-11-15T10:48:13.202Z,101411.91
2022-11-15T10:50:42.962Z,101401.22
2022-11-15T10:53:19.634Z,101390.88
2022-11-15T10:55:53.772Z,101390.34
2022-11-15T10:58:45.543Z,101391.03
2022-11-15T11:01:25.664Z,101371.22
2022-11-15T11:04:09.106Z,101367.59
2022-11-15T11:07:00.763Z,101372.63
2022-11-15T11:09:38.248Z,101381.97
2022-11-15T11:12:08.566Z,101377.34
2022-11-15T11:14:38.691Z,101362.63
2022-11-15T11:17:28.144Z,101387.53
2022-11-15T11:20:10.651Z,101381.88
2022-11-15T11:22:41.462Z,101381.88
2022-11-15T11:25:08.731Z,101377.03
2022-11-15T11:27:55.978Z,101373.88
2022-11-15T11:30:36.013Z,101350.88
2022-11-15T11:33:56.076Z,101353.50
2022-11-15T11:36:38.566Z,101367.16
2022-11-15T11:39:19.600Z,101353.78
2022-11-15T11:42:05.158Z,101347.25
2022-11-15T11:44:41.301Z,101353.88
2022-11-15T11:47:13.232Z,101352.78
2022-11-15T11:49:58.611Z,101355.06
2022-11-15T11:52:28.811Z,101355.97
2022-11-15T11:55:14.667Z,101339.44
2022-11-15T11:57:45.538Z,101350.72
2022-11-15T12:00:19.088Z,101332.56
2022-11-15T12:03:10.275Z,101349.88
2022-11-15T12:05:44.704Z,101344.88
2022-11-15T12:08:47.048Z,101336.56
2022-11-15T12:11:47.211Z,101339.22
2022-11-15T12:14:39.587Z,101330.72
2022-11-15T12:17:06.820Z,101339.22
2022-11-15T12:19:36.091Z,101342.22
2022-11-15T12:22:10.147Z,101339.22
2022-11-15T12:24:43.207Z,101332.91
2022-11-15T12:27:28.787Z,101331.44
2022-11-15T12:30:00.599Z,101328.72
2022-11-15T12:32:31.066Z,101330.19
2022-11-15T12:35:01.008Z,101332.22
2022-11-15T12:37:38.831Z,101334.31
2022-11-15T12:40:11.856Z,101338.53
2022-11-15T12:43:03.313Z,101330.47
2022-11-15T12:45:39.780Z,101335.78
2022-11-15T12:48:37.482Z,101336.06
2022-11-15T12:51:05.197Z,101337.16
2022-11-15T12:53:34.479Z,101322.63
2022-11-15T12:56:17.190Z,101325.06
2022-11-15T12:58:56.274Z,101310.50
2022-11-15T13:01:35.601Z,101313.50
2022-11-15T13:04:28.142Z,101310.38
2022-11-15T13:07:09.465Z,101297.34
2022-11-15T13:09:36.757Z,101295.66
2022-11-15T13:12:14.784Z,101274.69
2022-11-15T13:14:46.510Z,101293.00
2022-11-15T13:17:22.990Z,101293.34
2022-11-15T13:20:12.663Z,101285.75
2022-11-15T13:23:04.238Z,101287.66
2022-11-15T13:25:40.622Z,101302.25
2022-11-15T13:28:17.081Z,101293.34
2022-11-15T13:30:55.977Z,101298.66
2022-11-15T13:33:36.654Z,101280.22
2022-11-15T13:36:14.667Z,101291.97
2022-11-15T13:38:42.780Z,101285.59
2022-11-15T13:41:27.625Z,101289.47
2022-11-15T13:43:57.397Z,101281.59
2022-11-15T13:46:30.087Z,101274.25
2022-11-15T13:49:03.739Z,101276.72
2022-11-15T13:51:43.567Z,101276.63
2022-11-15T13:54:43.025Z,101280.31
2022-11-15T13:57:13.796Z,101273.81
2022-11-15T14:00:03.964Z,101260.69
2022-11-15T14:02:39.522Z,101272.78
2022-11-15T14:05:22.406Z,101261.31
2022-11-15T14:08:02.015Z,101235.03
2022-11-15T14:10:37.914Z,101258.81
2022-11-15T14:13:11.638Z,101252.13
2022-11-15T14:15:41.552Z,101272.97
2022-11-15T14:18:43.032Z,101269.78
2022-11-15T14:21:11.130Z,101253.25
2022-11-15T14:23:40.504Z,101270.34
2022-11-15T14:26:13.093Z,101268.88
2022-11-15T14:28:41.088Z,101259.72
2022-11-15T14:31:14.485Z,101274.13
2022-11-15T14:33:42.596Z,101255.63
2022-11-15T14:36:18.985Z,101258.00
2022-11-15T14:38:47.756Z,101243.59
2022-11-15T14:41:15.673Z,101256.31
2022-11-15T14:43:44.085Z,101247.53
2022-11-15T14:46:11.200Z,101251.03
2022-11-15T14:48:38.476Z,101243.66
2022-11-15T14:51:13.574Z,101245.38
2022-11-15T14:53:41.583Z,101251.41
2022-11-15T14:56:09.473Z,101244.97
2022-11-15T14:58:36.897Z,101249.53
2022-11-15T15:01:27.527Z,101254.94
2022-11-15T15:03:58.170Z,101255.16
2022-11-15T15:06:27.341Z,101262.84
2022-11-15T15:08:55.003Z,101263.28
2022-11-15T15:11:25.780Z,101264.28
2022-11-15T15:13:54.636Z,101263.84
2022-11-15T15:16:22.013Z,101242.28
2022-11-15T15:18:51.321Z,101243.34
2022-11-15T15:21:21.370Z,101238.75
2022-11-15T15:23:48.922Z,101223.63
2022-11-15T15:26:16.373Z,101239.03
2022-11-15T15:28:44.027Z,101212.63
2022-11-15T15:31:11.613Z,101221.88
2022-11-15T15:33:39.216Z,101193.78
2022-11-15T15:36:06.908Z,101209.22
2022-11-15T15:38:34.769Z,101221.28
2022-11-15T15:41:04.065Z,101222.31
2022-11-15T15:43:31.289Z,101214.69
2022-11-15T15:45:58.604Z,101223.00
2022-11-15T15:48:25.868Z,101207.72
2022-11-15T15:50:54.310Z,101182.16
2022-11-15T15:53:23.093Z,101199.09
2022-11-15T15:55:50.300Z,101198.84
2022-11-15T15:58:17.586Z,101197.75
2022-11-15T16:00:44.806Z,101211.94
2022-11-15T16:03:12.813Z,101202.72
2022-11-15T16:05:41.941Z,101182.16
2022-11-15T16:08:42.513Z,101198.59
2022-11-15T16:11:15.291Z,101186.41
2022-11-15T16:13:42.441Z,101188.25
2022-11-15T16:16:15.097Z,101188.34
2022-11-15T16:18:42.748Z,101166.38
2022-11-15T16:21:10.384Z,101187.22
2022-11-15T16:23:38.824Z,101173.75
2022-11-15T16:26:22.035Z,101174.06
2022-11-15T16:28:49.545Z,101175.19
2022-11-15T16:31:19.496Z,101168.91
2022-11-15T16:33:47.594Z,101183.13
2022-11-15T16:36:29.911Z,101183.72
2022-11-15T16:38:58.525Z,101176.34
2022-11-15T16:41:26.676Z,101169.63
2022-11-15T16:43:54.543Z,101165.63
2022-11-15T16:46:24.882Z,101175.09
2022-11-15T16:48:54.502Z,101168.19
2022-11-15T16:51:22.560Z,101168.53
2022-11-15T16:53:50.225Z,101166.91
2022-11-15T16:56:23.578Z,101177.03
2022-11-15T16:58:50.981Z,101159.16
2022-11-15T17:01:30.950Z,101158.69
2022-11-15T17:03:59.318Z,101130.72
2022-11-15T17:06:27.160Z,101099.47
2022-11-15T17:08:55.137Z,101131.44
2022-11-15T17:11:23.587Z,101134.22
2022-11-15T17:13:50.918Z,101126.50
2022-11-15T17:16:19.757Z,101113.31
2022-11-15T17:18:51.481Z,101122.50
2022-11-15T17:21:22.217Z,101118.47
2022-11-15T17:23:49.615Z,101111.94
2022-11-15T17:26:29.592Z,101095.97
2022-11-15T17:29:01.397Z,101085.31
2022-11-15T17:31:31.148Z,101089.13
2022-11-15T17:33:58.302Z,101075.00
2022-11-15T17:36:25.489Z,101087.06
2022-11-15T17:38:58.084Z,101074.28
2022-11-15T17:41:27.849Z,101077.97
2022-11-15T17:44:00.119Z,101046.50
2022-11-15T17:46:28.705Z,101083.59
2022-11-15T17:48:57.451Z,101075.50
2022-11-15T17:51:25.508Z,101079.97
2022-11-15T17:53:53.458Z,101063.25
2022-11-15T17:56:23.120Z,101045.97
2022-11-15T17:58:55.469Z,101054.34
2022-11-15T18:01:28.508Z,101063.81
2022-11-15T18:03:57.486Z,101063.81
2022-11-15T18:06:25.176Z,101070.22
2022-11-15T18:08:56.270Z,101059.03
2022-11-15T18:11:32.982Z,101065.16
2022-11-15T18:14:04.070Z,101064.59
2022-11-15T18:16:35.587Z,101058.53
2022-11-15T18:19:10.942Z,101059.09
2022-11-15T18:21:56.371Z,101039.63
2022-11-15T18:24:27.709Z,101048.50
2022-11-15T18:26:55.478Z,101037.13
2022-11-15T18:29:24.689Z,101050.47
2022-11-15T18:31:56.279Z,101044.34
2022-11-15T18:34:25.803Z,101042.66
2022-11-15T18:36:53.599Z,101035.41
2022-11-15T18:39:21.100Z,101002.56
2022-11-15T18:41:48.524Z,101025.09
2022-11-15T18:44:17.670Z,101017.84
2022-11-15T18:46:45.593Z,101021.75
2022-11-15T18:49:14.907Z,101020.91
2022-11-15T18:51:43.243Z,101029.28
2022-11-15T18:54:15.099Z,101028.75
2022-11-15T18:56:47.305Z,101013.47
2022-11-15T18:59:15.728Z,101012.91
2022-11-15T19:01:47.921Z,101004.56
2022-11-15T19:04:20.583Z,101015.97
2022-11-15T19:06:50.914Z,101011.19
2022-11-15T19:09:19.570Z,101000.94
2022-11-15T19:11:49.278Z,101009.25
2022-11-15T19:14:19.174Z,100997.56
2022-11-15T19:16:51.703Z,101003.09
2022-11-15T19:19:22.301Z,100978.06
2022-11-15T19:21:50.669Z,100971.91
2022-11-15T19:24:18.140Z,100962.44
2022-11-15T19:26:46.149Z,100953.00
2022-11-15T19:29:17.439Z,100945.53
2022-11-15T19:31:44.931Z,100954.72
2022-11-15T19:34:13.071Z,100946.34
2022-11-15T19:36:42.887Z,100946.38
2022-11-15T19:39:13.395Z,100934.41
2022-11-15T19:41:48.736Z,100933.84
2022-11-15T19:44:16.493Z,100927.44
2022-11-15T19:46:44.585Z,100926.59
2022-11-15T19:49:12.096Z,100918.00
2022-11-15T19:51:43.322Z,100935.78
2022-11-15T19:54:11.020Z,100940.78
2022-11-15T19:56:40.309Z,100951.34
2022-11-15T19:59:08.163Z,100932.06
2022-11-15T20:01:38.805Z,100949.50
2022-11-15T20:04:08.783Z,100946.44
2022-11-15T20:06:40.891Z,100965.03
2022-11-15T20:09:11.647Z,100957.31
2022-11-15T20:11:39.551Z,100949.13
2022-11-15T20:14:09.155Z,100957.88
2022-11-15T20:16:36.451Z,100960.25
2022-11-15T20:19:03.810Z,100947.75
2022-11-15T20:21:31.658Z,100961.22
2022-11-15T20:23:59.397Z,100946.56
2022-11-15T20:26:26.828Z,100940.53
2022-11-15T20:28:55.786Z,100954.09
2022-11-15T20:31:23.785Z,100936.19
2022-11-15T20:33:52.145Z,100945.19
2022-11-15T20:36:19.547Z,100923.63
2022-11-15T20:38:46.798Z,100940.66
2022-11-15T20:41:14.655Z,100938.41
2022-11-15T20:43:43.855Z,100942.41
2022-11-15T20:46:13.240Z,100946.50
2022-11-15T20:48:40.883Z,100934.38
2022-11-15T20:51:14.466Z,100935.94
2022-11-15T20:53:44.069Z,100941.94
2022-11-15T20:56:14.945Z,100932.03
2022-11-15T20:58:43.260Z,100932.75
2022-11-15T21:01:14.138Z,100926.97
2022-11-15T21:03:42.005Z,100930.44
2022-11-15T21:06:10.203Z,100921.28
2022-11-15T21:08:57.327Z,100928.84
2022-11-15T21:11:43.992Z,100919.88
2022-11-15T21:14:11.679Z,100900.06
2022-11-15T21:16:39.165Z,100889.41
2022-11-15T21:19:07.368Z,100888.00
2022-11-15T21:21:36.293Z,100897.78
2022-11-15T21:24:08.918Z,100883.19
2022-11-15T21:26:37.324Z,100895.22
2022-11-15T21:29:05.970Z,100879.72
2022-11-15T21:31:33.919Z,100868.63
2022-11-15T21:34:02.887Z,100866.13
2022-11-15T21:36:31.499Z,100861.78
2022-11-15T21:38:59.005Z,100855.47
2022-11-15T21:41:26.296Z,100852.03
2022-11-15T21:43:57.238Z,100846.97
2022-11-15T21:46:24.644Z,100835.47
2022-11-15T21:48:51.924Z,100848.31
2022-11-15T21:51:19.237Z,100836.13
2022-11-15T21:53:46.543Z,100849.91
2022-11-15T21:56:13.896Z,100831.22
2022-11-15T21:58:42.212Z,100827.31
2022-11-15T22:01:29.899Z,100834.53
2022-11-15T22:03:57.782Z,100826.91
2022-11-15T22:06:24.921Z,100819.81
2022-11-15T22:08:52.479Z,100822.31
2022-11-15T22:11:19.944Z,100833.50
2022-11-15T22:13:47.087Z,100830.91
2022-11-15T22:16:14.637Z,100814.34
2022-11-15T22:18:42.506Z,100826.16
2022-11-15T22:21:12.254Z,100814.03
2022-11-15T22:23:40.362Z,100812.13
2022-11-15T22:26:10.347Z,100817.09
2022-11-15T22:28:37.643Z,100797.88
2022-11-15T22:31:05.256Z,100805.50
2022-11-15T22:33:34.273Z,100794.53
2022-11-15T22:36:02.485Z,100795.38
2022-11-15T22:38:29.944Z,100796.03
2022-11-15T22:40:57.953Z,100788.34
2022-11-15T22:43:26.799Z,100787.19
2022-11-15T22:45:59.597Z,100785.41
2022-11-15T22:48:29.911Z,100783.16
2022-11-15T22:50:57.961Z,100780.81
2022-11-15T22:53:26.143Z,100779.53
2022-11-15T22:55:58.628Z,100775.00
2022-11-15T22:58:28.153Z,100758.94
2022-11-15T23:00:57.868Z,100753.00
2022-11-15T23:03:26.807Z,100751.41
2022-11-15T23:05:54.715Z,100765.19
2022-11-15T23:08:23.776Z,100765.50
2022-11-15T23:11:09.714Z,100760.47
2022-11-15T23:13:37.085Z,100748.78
2022-11-15T23:16:29.112Z,100755.13
2022-11-15T23:18:58.361Z,100743.66
2022-11-15T23:21:46.490Z,100766.16
2022-11-15T23:24:15.122Z,100767.38
2022-11-15T23:26:43.438Z,100760.34
2022-11-15T23:29:13.450Z,100757.16
2022-11-15T23:32:02.544Z,100746.13
2022-11-15T23:34:37.124Z,100730.66
2022-11-15T23:37:05.515Z,100734.50
2022-11-15T23:39:33.294Z,100750.38
2022-11-15T23:42:05.920Z,100733.84
2022-11-15T23:44:36.170Z,100719.78
2022-11-15T23:47:03.602Z,100707.31
2022-11-15T23:49:31.450Z,100724.16
2022-11-15T23:51:58.918Z,100711.13
2022-11-15T23:54:26.203Z,100700.50
2022-11-15T23:56:53.956Z,100706.59
2022-11-15T23:59:21.499Z,100704.56
